Time;durP1;ratioP1;P1;durP2;ratioP2;P2;SDS_P1;SDS_P2;PMS_P1;PMS_P2;Temp;Humidity;BMP_temperature;BMP_pressure;BME280_temperature;BME280_humidity;BME280_pressure;Samples;Min_cycle;Max_cycle;Signal;HPM_P1;HPM_P2
2023/11/25 00:00:56;;;;;;;1.70;0.30;;;;;;;1.17;100.00;99453.69;5053461;28;20876;-69
2023/11/25 00:03:23;;;;;;;1.70;0.30;;;;;;;1.25;100.00;99465.69;5053639;28;20566;-69
2023/11/25 00:05:49;;;;;;;1.70;0.30;;;;;;;1.26;100.00;99464.63;5053609;28;20438;-69
2023/11/25 00:08:16;;;;;;;1.70;0.30;;;;;;;1.27;100.00;99475.00;5053503;28;20450;-69
2023/11/25 00:10:43;;;;;;;1.70;0.30;;;;;;;1.27;100.00;99477.69;5053281;28;20581;-69
2023/11/25 00:13:09;;;;;;;3.50;0.57;;;;;;;1.22;100.00;99477.69;5053140;28;20521;-69
2023/11/25 00:15:38;;;;;;;2.83;0.50;;;;;;;1.23;100.00;99471.28;5053852;28;20434;-69
2023/11/25 00:18:06;;;;;;;2.30;0.67;;;;;;;1.27;100.00;99477.69;5053268;28;20988;-69
2023/11/25 00:20:35;;;;;;;1.80;0.50;;;;;;;1.29;100.00;99485.44;5053526;28;20491;-69
2023/11/25 00:23:02;;;;;;;1.90;0.53;;;;;;;1.22;100.00;99493.69;5052855;28;20442;-69
2023/11/25 00:25:29;;;;;;;1.80;0.50;;;;;;;1.25;100.00;99505.69;5053148;28;20446;-69
2023/11/25 00:27:55;;;;;;;1.83;0.60;;;;;;;1.26;100.00;99505.41;5053165;28;20474;-69
2023/11/25 00:30:23;;;;;;;1.80;0.40;;;;;;;1.28;100.00;99502.47;5053120;28;20578;-69
2023/11/25 00:32:51;;;;;;;1.70;0.30;;;;;;;1.25;100.00;99517.16;5053640;28;20456;-71
2023/11/25 00:35:18;;;;;;;1.70;0.30;;;;;;;1.22;100.00;99522.22;5052698;28;21031;-69
2023/11/25 00:37:45;;;;;;;2.77;0.50;;;;;;;1.17;100.00;99520.34;5053155;28;20983;-69
2023/11/25 00:40:12;;;;;;;1.80;0.50;;;;;;;1.16;100.00;99525.97;5053391;28;20495;-69
2023/11/25 00:42:39;;;;;;;2.20;0.50;;;;;;;1.23;100.00;99537.16;5053531;28;20466;-69
2023/11/25 00:45:07;;;;;;;1.70;0.30;;;;;;;1.24;100.00;99544.13;5052743;28;20462;-69
2023/11/25 00:47:34;;;;;;;1.73;0.30;;;;;;;1.16;100.00;99553.44;5053188;28;20470;-69
2023/11/25 00:50:05;;;;;;;1.70;0.30;;;;;;;1.21;100.00;99557.97;5053383;28;20482;-69
2023/11/25 00:52:31;;;;;;;1.70;0.30;;;;;;;1.22;100.00;99552.34;5053108;28;20500;-69
2023/11/25 00:54:58;;;;;;;1.70;0.30;;;;;;;1.20;100.00;99554.50;5053040;28;20989;-69
2023/11/25 00:57:25;;;;;;;1.70;0.30;;;;;;;1.22;100.00;99554.22;5053366;28;20450;-69
2023/11/25 00:59:51;;;;;;;2.00;0.60;;;;;;;1.16;100.00;99552.63;5052508;28;20465;-69
2023/11/25 01:02:18;;;;;;;2.00;0.50;;;;;;;1.13;100.00;99555.81;5052808;28;20473;-69
2023/11/25 01:04:44;;;;;;;1.70;0.40;;;;;;;1.17;100.00;99560.34;5052844;28;20489;-69
2023/11/25 01:07:12;;;;;;;1.90;0.67;;;;;;;1.14;100.00;99560.88;5052792;28;20497;-69
2023/11/25 01:09:39;;;;;;;2.10;0.60;;;;;;;1.10;100.00;99565.13;5056164;28;20535;-69
2023/11/25 01:12:07;;;;;;;1.70;0.30;;;;;;;1.10;100.00;99565.13;5056320;28;20462;-69
2023/11/25 01:14:33;;;;;;;1.70;0.30;;;;;;;1.08;100.00;99569.16;5055866;28;20509;-69
2023/11/25 01:17:01;;;;;;;1.80;0.40;;;;;;;1.03;100.00;99571.81;5055998;28;20521;-69
2023/11/25 01:19:28;;;;;;;1.70;0.30;;;;;;;1.00;100.00;99567.78;5056122;28;20528;-69
2023/11/25 01:21:54;;;;;;;1.70;0.30;;;;;;;1.03;100.00;99575.25;5056466;28;20441;-69
2023/11/25 01:24:22;;;;;;;1.80;0.47;;;;;;;1.03;100.00;99580.59;5056057;28;20549;-69
2023/11/25 01:26:49;;;;;;;1.77;0.37;;;;;;;1.06;100.00;99589.91;5056405;28;20492;-69
2023/11/25 01:29:17;;;;;;;1.70;0.30;;;;;;;1.04;100.00;99590.19;5055941;28;20434;-69
2023/11/25 01:31:44;;;;;;;1.70;0.40;;;;;;;1.05;100.00;99589.13;5056016;28;20826;-69
2023/11/25 01:34:11;;;;;;;1.70;0.30;;;;;;;1.13;100.00;99601.16;5055398;28;20477;-69
2023/11/25 01:36:38;;;;;;;1.70;0.30;;;;;;;1.09;100.00;99600.88;5056030;28;20415;-69
2023/11/25 01:39:05;;;;;;;1.70;0.30;;;;;;;1.16;100.00;99600.63;5055845;28;20461;-69
2023/11/25 01:41:33;;;;;;;1.70;0.30;;;;;;;1.20;100.00;99613.19;5055904;28;20442;-68
2023/11/25 01:44:00;;;;;;;1.70;0.30;;;;;;;1.28;100.00;99598.50;5055774;28;20458;-68
2023/11/25 01:46:39;;;;;;;1.70;0.30;;;;;;;1.31;100.00;99605.19;5055789;28;20525;-68
2023/11/25 01:49:07;;;;;;;1.70;0.30;;;;;;;1.33;100.00;99606.53;5055983;28;20468;-68
2023/11/25 01:51:35;;;;;;;1.80;0.40;;;;;;;1.36;100.00;99606.00;5055808;28;20482;-68
2023/11/25 01:54:05;;;;;;;1.70;0.30;;;;;;;1.33;100.00;99616.38;5055465;28;20502;-68
2023/11/25 01:56:34;;;;;;;1.70;0.30;;;;;;;1.40;100.00;99617.75;5055488;28;20489;-69
2023/11/25 01:59:04;;;;;;;1.70;0.30;;;;;;;1.37;100.00;99602.25;5055738;28;20537;-70
2023/11/25 02:01:30;;;;;;;1.70;0.30;;;;;;;1.38;100.00;99613.75;5055459;28;20438;-69
2023/11/25 02:03:57;;;;;;;1.70;0.40;;;;;;;1.43;100.00;99617.22;5055093;28;20478;-69
2023/11/25 02:06:25;;;;;;;1.70;0.30;;;;;;;1.45;100.00;99612.41;5055437;28;20517;-69
2023/11/25 02:08:52;;;;;;;1.70;0.30;;;;;;;1.43;100.00;99627.09;5055051;28;20462;-69
2023/11/25 02:11:18;;;;;;;1.80;0.43;;;;;;;1.49;100.00;99624.16;5055274;28;20631;-69
2023/11/25 02:13:46;;;;;;;1.83;0.57;;;;;;;1.54;100.00;99617.22;5055261;28;20458;-69
2023/11/25 02:16:15;;;;;;;1.70;0.40;;;;;;;1.56;100.00;99623.91;5055496;28;20447;-70
2023/11/25 02:18:42;;;;;;;3.93;0.60;;;;;;;1.56;100.00;99631.13;5054890;28;20454;-70
2023/11/25 02:21:10;;;;;;;1.90;0.40;;;;;;;1.55;100.00;99638.31;5054547;28;20438;-70
2023/11/25 02:23:38;;;;;;;1.70;0.30;;;;;;;1.55;100.00;99638.31;5054860;28;20462;-70
2023/11/25 02:26:05;;;;;;;1.70;0.30;;;;;;;1.62;100.00;99630.84;5054866;28;20434;-70
2023/11/25 02:28:31;;;;;;;1.70;0.30;;;;;;;1.62;100.00;99635.38;5054941;28;20526;-70
2023/11/25 02:30:58;;;;;;;1.70;0.30;;;;;;;1.60;100.00;99637.53;5054858;28;20490;-70
2023/11/25 02:33:34;;;;;;;2.20;0.90;;;;;;;1.60;100.00;99638.31;5055080;28;20541;-70
2023/11/25 02:36:00;;;;;;;1.90;0.40;;;;;;;1.60;100.00;99641.00;5055400;28;20457;-70
2023/11/25 02:38:27;;;;;;;1.70;0.30;;;;;;;1.62;100.00;99652.19;5054617;28;20446;-70
2023/11/25 02:40:56;;;;;;;1.80;0.40;;;;;;;1.61;100.00;99653.28;5054899;28;20477;-70
2023/11/25 02:43:23;;;;;;;1.70;0.30;;;;;;;1.62;100.00;99660.19;5054697;28;21522;-70
2023/11/25 02:45:49;;;;;;;1.70;0.30;;;;;;;1.63;100.00;99659.13;5054595;28;20442;-70
2023/11/25 02:48:16;;;;;;;1.73;0.30;;;;;;;1.61;100.00;99658.59;5054883;28;20493;-70
2023/11/25 02:50:43;;;;;;;2.20;0.67;;;;;;;1.57;100.00;99662.88;5054464;28;20921;-70
2023/11/25 02:53:10;;;;;;;1.70;0.30;;;;;;;1.59;100.00;99671.41;5054082;28;20442;-72
2023/11/25 02:55:37;;;;;;;1.70;0.40;;;;;;;1.70;100.00;99670.38;5054221;28;20496;-70
2023/11/25 02:58:05;;;;;;;1.70;0.30;;;;;;;1.68;100.00;99669.84;5054509;28;20442;-70
2023/11/25 03:00:36;;;;;;;1.70;0.30;;;;;;;1.65;100.00;99670.34;5054443;28;20938;-70
2023/11/25 03:03:09;;;;;;;1.70;0.30;;;;;;;1.66;100.00;99661.28;5054553;28;20431;-70
2023/11/25 03:05:36;;;;;;;1.90;0.50;;;;;;;1.66;100.00;99671.97;5054383;28;20427;-70
2023/11/25 03:08:04;;;;;;;1.80;0.40;;;;;;;1.71;100.00;99665.81;5054310;28;20882;-70
2023/11/25 03:10:31;;;;;;;1.70;0.30;;;;;;;1.70;100.00;99665.03;5053971;28;20997;-70
2023/11/25 03:12:59;;;;;;;1.70;0.30;;;;;;;1.75;100.00;99666.91;5054154;28;20459;-70
2023/11/25 03:15:27;;;;;;;2.00;0.40;;;;;;;1.76;100.00;99671.97;5054779;28;20462;-70
2023/11/25 03:17:53;;;;;;;1.70;0.40;;;;;;;1.77;100.00;99670.91;5054137;28;20557;-70
2023/11/25 03:20:20;;;;;;;1.70;0.30;;;;;;;1.71;100.00;99677.28;5054260;28;20438;-70
2023/11/25 03:22:47;;;;;;;1.73;0.40;;;;;;;1.69;100.00;99682.09;5054930;28;20542;-70
2023/11/25 03:25:14;;;;;;;1.70;0.30;;;;;;;1.67;100.00;99680.75;5053796;28;21084;-70
2023/11/25 03:27:41;;;;;;;1.70;0.30;;;;;;;1.71;100.00;99681.84;5053901;28;20488;-70
2023/11/25 03:30:11;;;;;;;1.77;0.40;;;;;;;1.69;100.00;99671.44;5053557;28;20441;-70
2023/11/25 03:32:39;;;;;;;1.70;0.30;;;;;;;1.67;100.00;99692.22;5054310;28;20450;-70
2023/11/25 03:35:07;;;;;;;2.37;0.80;;;;;;;1.64;100.00;99690.13;5054094;28;20544;-70
2023/11/25 03:37:33;;;;;;;1.90;0.43;;;;;;;1.64;100.00;99686.63;5053741;28;20492;-70
2023/11/25 03:40:00;;;;;;;1.70;0.40;;;;;;;1.66;100.00;99695.97;5054528;28;20525;-70
2023/11/25 03:42:27;;;;;;;1.70;0.30;;;;;;;1.66;100.00;99703.97;5053658;28;20515;-70
2023/11/25 03:44:53;;;;;;;1.70;0.30;;;;;;;1.59;100.00;99698.09;5053604;28;20524;-70
2023/11/25 03:47:20;;;;;;;1.73;0.30;;;;;;;1.58;100.00;99703.69;5053246;28;20883;-70
2023/11/25 03:49:48;;;;;;;1.70;0.30;;;;;;;1.67;100.00;99694.09;5053670;28;20535;-71
2023/11/25 03:52:15;;;;;;;1.70;0.30;;;;;;;1.68;100.00;99707.22;5053810;28;20481;-68
2023/11/25 03:54:41;;;;;;;1.70;0.30;;;;;;;1.66;100.00;99706.66;5053184;28;20493;-68
2023/11/25 03:57:09;;;;;;;1.90;0.60;;;;;;;1.68;100.00;99709.03;5053745;28;20447;-68
2023/11/25 03:59:36;;;;;;;2.27;0.80;;;;;;;1.65;100.00;99707.72;5053296;28;20502;-68
2023/11/25 04:02:02;;;;;;;1.70;0.30;;;;;;;1.65;100.00;99715.72;5053222;28;20527;-68
2023/11/25 04:04:29;;;;;;;1.70;0.30;;;;;;;1.74;100.00;99718.69;5053264;28;20501;-68
2023/11/25 04:06:58;;;;;;;1.70;0.30;;;;;;;1.81;100.00;99718.41;5053569;28;20984;-68
2023/11/25 04:09:26;;;;;;;1.70;0.30;;;;;;;1.82;100.00;99723.50;5053622;28;20464;-68
2023/11/25 04:11:52;;;;;;;1.80;0.40;;;;;;;1.84;100.00;99718.69;5053108;28;20792;-69
2023/11/25 04:14:19;;;;;;;1.70;0.30;;;;;;;1.80;100.00;99722.16;5053498;28;20469;-69
2023/11/25 04:16:46;;;;;;;1.70;0.30;;;;;;;1.80;100.00;99722.16;5053254;28;20939;-69
2023/11/25 04:19:13;;;;;;;1.80;0.50;;;;;;;1.81;100.00;99734.44;5053262;28;20525;-70
2023/11/25 04:21:45;;;;;;;1.70;0.30;;;;;;;1.82;100.00;99722.72;5053369;28;20957;-69
2023/11/25 04:24:13;;;;;;;1.73;0.37;;;;;;;1.72;100.00;99736.81;5053143;28;20462;-69
2023/11/25 04:26:41;;;;;;;1.70;0.30;;;;;;;1.72;100.00;99736.81;5053111;28;20976;-69
2023/11/25 04:29:08;;;;;;;2.33;0.83;;;;;;;1.72;100.00;99734.94;5053166;28;20442;-69
2023/11/25 04:31:35;;;;;;;1.70;0.30;;;;;;;1.74;100.00;99732.84;5053301;28;20977;-69
2023/11/25 04:34:04;;;;;;;1.80;0.40;;;;;;;1.73;100.00;99738.44;5053097;28;20458;-69
2023/11/25 04:36:32;;;;;;;1.80;0.57;;;;;;;1.76;100.00;99733.34;5053027;28;20450;-69
2023/11/25 04:38:59;;;;;;;1.70;0.30;;;;;;;1.75;100.00;99744.31;5053089;28;20450;-69
2023/11/25 04:41:27;;;;;;;1.70;0.30;;;;;;;1.80;100.00;99732.84;5053496;28;20480;-69
2023/11/25 04:43:54;;;;;;;1.70;0.30;;;;;;;1.79;100.00;99749.94;5056269;28;20548;-69
2023/11/25 04:46:21;;;;;;;1.80;0.40;;;;;;;1.76;100.00;99737.91;5056771;28;20525;-69
2023/11/25 04:48:47;;;;;;;1.77;0.40;;;;;;;1.81;100.00;99745.91;5057207;28;20813;-69
2023/11/25 04:51:22;;;;;;;1.73;0.30;;;;;;;1.74;100.00;99746.19;5056823;28;21012;-69
2023/11/25 04:53:49;;;;;;;1.70;0.30;;;;;;;1.75;100.00;99747.78;5056847;28;20486;-69
2023/11/25 04:56:16;;;;;;;1.70;0.30;;;;;;;1.69;100.00;99756.84;5057097;28;20466;-69
2023/11/25 04:58:43;;;;;;;1.70;0.30;;;;;;;1.64;100.00;99754.16;5057314;28;20488;-69
2023/11/25 05:01:10;;;;;;;3.10;0.73;;;;;;;1.62;100.00;99758.94;5056739;28;20434;-69
2023/11/25 05:03:37;;;;;;;1.80;0.40;;;;;;;1.65;100.00;99768.31;5056704;28;20458;-69
2023/11/25 05:06:09;;;;;;;2.00;0.60;;;;;;;1.66;100.00;99767.25;5056881;28;20436;-69
2023/11/25 05:08:36;;;;;;;1.70;0.30;;;;;;;1.66;100.00;99768.03;5056350;28;20454;-69
2023/11/25 05:11:02;;;;;;;1.80;0.40;;;;;;;1.62;100.00;99768.81;5056423;28;20570;-69
2023/11/25 05:13:29;;;;;;;2.00;0.70;;;;;;;1.57;100.00;99772.28;5056475;28;20458;-69
2023/11/25 05:15:58;;;;;;;1.80;0.50;;;;;;;1.58;100.00;99784.56;5056808;28;20442;-69
2023/11/25 05:18:24;;;;;;;1.70;0.30;;;;;;;1.57;100.00;99787.50;5056571;28;20540;-69
2023/11/25 05:20:51;;;;;;;1.73;0.30;;;;;;;1.60;100.00;99782.44;5056427;28;20526;-71
2023/11/25 05:23:18;;;;;;;1.90;0.50;;;;;;;1.57;100.00;99790.97;5056349;28;20490;-68
2023/11/25 05:25:44;;;;;;;1.70;0.37;;;;;;;1.59;100.00;99796.81;5056300;28;20446;-68
2023/11/25 05:28:11;;;;;;;1.70;0.30;;;;;;;1.57;100.00;99804.31;5056481;28;20477;-70
2023/11/25 05:30:38;;;;;;;1.70;0.30;;;;;;;1.56;100.00;99812.59;5056358;28;20446;-70
2023/11/25 05:33:06;;;;;;;1.70;0.30;;;;;;;1.58;100.00;99800.56;5056475;28;20880;-70
2023/11/25 05:35:32;;;;;;;1.80;0.40;;;;;;;1.51;100.00;99806.16;5056542;28;20529;-70
2023/11/25 05:37:59;;;;;;;1.70;0.30;;;;;;;1.48;100.00;99813.88;5056576;28;20529;-70
2023/11/25 05:40:29;;;;;;;1.80;0.43;;;;;;;1.48;100.00;99806.66;5056412;28;20521;-70
2023/11/25 05:42:58;;;;;;;1.70;0.30;;;;;;;1.45;100.00;99817.84;5055975;28;20422;-70
2023/11/25 05:45:30;;;;;;;1.70;0.40;;;;;;;1.47;100.00;99815.75;5055768;28;20863;-70
2023/11/25 05:47:56;;;;;;;1.77;0.40;;;;;;;1.40;100.00;99814.38;5055761;28;20960;-70
2023/11/25 05:50:24;;;;;;;1.70;0.30;;;;;;;1.40;100.00;99817.03;5056138;28;20541;-71
2023/11/25 05:52:51;;;;;;;1.70;0.30;;;;;;;1.38;100.00;99817.31;5055797;28;20855;-71
2023/11/25 05:55:19;;;;;;;1.70;0.30;;;;;;;1.32;100.00;99818.31;5055865;28;20577;-71
2023/11/25 05:57:46;;;;;;;1.70;0.30;;;;;;;1.33;100.00;99824.44;5055790;28;20450;-71
2023/11/25 06:00:14;;;;;;;1.70;0.33;;;;;;;1.34;100.00;99826.09;5055309;28;20537;-71
2023/11/25 06:02:42;;;;;;;1.77;0.30;;;;;;;1.33;100.00;99830.63;5055600;28;20430;-70
2023/11/25 06:05:09;;;;;;;1.70;0.30;;;;;;;1.36;100.00;99830.09;5055578;28;20488;-70
2023/11/25 06:07:37;;;;;;;1.73;0.40;;;;;;;1.34;100.00;99828.75;5055541;28;20442;-70
2023/11/25 06:10:05;;;;;;;1.70;0.30;;;;;;;1.32;100.00;99829.00;5055565;28;20500;-70
2023/11/25 06:12:32;;;;;;;1.70;0.30;;;;;;;1.35;100.00;99833.81;5055562;28;20490;-70
2023/11/25 06:14:59;;;;;;;1.70;0.40;;;;;;;1.36;100.00;99834.63;5055443;28;20457;-70
2023/11/25 06:17:26;;;;;;;3.10;1.37;;;;;;;1.32;100.00;99830.84;5055551;28;20434;-70
2023/11/25 06:19:54;;;;;;;1.70;0.30;;;;;;;1.34;100.00;99828.75;5055311;28;20446;-70
2023/11/25 06:22:21;;;;;;;1.90;0.67;;;;;;;1.33;100.00;99835.97;5054915;28;20438;-70
2023/11/25 06:24:49;;;;;;;1.70;0.30;;;;;;;1.33;100.00;99833.28;5055015;28;20813;-70
2023/11/25 06:27:16;;;;;;;1.70;0.30;;;;;;;1.31;100.00;99840.72;5055206;28;20477;-70
2023/11/25 06:29:43;;;;;;;1.80;0.50;;;;;;;1.29;100.00;99844.72;5055099;28;20474;-71
2023/11/25 06:32:11;;;;;;;1.70;0.30;;;;;;;1.27;100.00;99843.09;5055276;28;20540;-70
2023/11/25 06:34:38;;;;;;;1.70;0.30;;;;;;;1.25;100.00;99847.09;5054862;28;20969;-70
2023/11/25 06:37:04;;;;;;;1.90;0.50;;;;;;;1.24;100.00;99838.31;5054717;28;21001;-69
2023/11/25 06:39:32;;;;;;;1.70;0.30;;;;;;;1.25;100.00;99845.22;5054736;28;21001;-71
2023/11/25 06:42:00;;;;;;;2.10;0.60;;;;;;;1.29;100.00;99842.06;5054494;28;20930;-71
2023/11/25 06:44:27;;;;;;;1.70;0.30;;;;;;;1.31;100.00;99842.59;5054764;28;20465;-71
2023/11/25 06:46:54;;;;;;;1.70;0.30;;;;;;;1.33;100.00;99835.13;5054548;28;20453;-71
2023/11/25 06:49:20;;;;;;;1.70;0.30;;;;;;;1.34;100.00;99839.41;5054850;28;20951;-71
2023/11/25 06:51:48;;;;;;;1.83;0.50;;;;;;;1.32;100.00;99836.19;5054932;28;20478;-71
2023/11/25 06:54:14;;;;;;;1.70;0.30;;;;;;;1.31;100.00;99848.72;5054429;28;20532;-70
2023/11/25 06:56:41;;;;;;;1.70;0.30;;;;;;;1.27;100.00;99842.31;5054464;28;20439;-70
2023/11/25 06:59:12;;;;;;;1.70;0.30;;;;;;;1.22;100.00;99840.41;5054473;28;20477;-71
2023/11/25 07:01:39;;;;;;;1.70;0.30;;;;;;;1.26;100.00;99849.50;5054342;28;20466;-70
2023/11/25 07:04:06;;;;;;;1.77;0.40;;;;;;;1.18;100.00;99849.97;5054372;28;20477;-70
2023/11/25 07:06:33;;;;;;;1.70;0.30;;;;;;;1.22;100.00;99855.63;5053884;28;20438;-68
2023/11/25 07:09:01;;;;;;;1.70;0.30;;;;;;;1.20;100.00;99847.06;5053934;28;20549;-69
2023/11/25 07:11:30;;;;;;;1.73;0.40;;;;;;;1.24;100.00;99853.50;5054532;28;20448;-69
2023/11/25 07:13:56;;;;;;;1.70;0.30;;;;;;;1.23;100.00;99852.69;5054475;28;20471;-69
2023/11/25 07:16:24;;;;;;;1.80;0.50;;;;;;;1.21;100.00;99849.47;5054451;28;20442;-69
2023/11/25 07:18:51;;;;;;;2.23;1.03;;;;;;;1.27;100.00;99853.78;5053973;28;20533;-70
2023/11/25 07:21:18;;;;;;;1.80;0.50;;;;;;;1.22;100.00;99851.06;5054117;28;20926;-69
2023/11/25 07:23:44;;;;;;;1.80;0.40;;;;;;;1.25;100.00;99855.91;5054194;28;20466;-69
2023/11/25 07:26:11;;;;;;;1.70;0.30;;;;;;;1.25;100.00;99849.78;5053922;28;20529;-70
2023/11/25 07:28:39;;;;;;;1.70;0.40;;;;;;;1.31;100.00;99851.41;5054373;28;20516;-70
2023/11/25 07:31:05;;;;;;;1.70;0.30;;;;;;;1.39;100.00;99844.78;5054131;28;20527;-70
2023/11/25 07:33:33;;;;;;;1.80;0.60;;;;;;;1.36;100.00;99847.97;5053642;28;20486;-70
2023/11/25 07:36:00;;;;;;;1.70;0.30;;;;;;;1.35;100.00;99855.16;5053471;28;20989;-70
2023/11/25 07:38:28;;;;;;;1.70;0.30;;;;;;;1.38;100.00;99859.19;5053909;28;20464;-70
2023/11/25 07:40:55;;;;;;;1.70;0.40;;;;;;;1.42;100.00;99858.41;5054083;28;20652;-71
2023/11/25 07:43:24;;;;;;;1.70;0.30;;;;;;;1.38;100.00;99856.53;5053657;28;20499;-71
2023/11/25 07:45:51;;;;;;;1.70;0.30;;;;;;;1.37;100.00;99858.34;5053632;28;20533;-71
2023/11/25 07:48:17;;;;;;;1.80;0.50;;;;;;;1.34;100.00;99858.09;5053699;28;20446;-71
2023/11/25 07:50:45;;;;;;;2.07;0.70;;;;;;;1.31;100.00;99858.59;5053180;28;20449;-71
2023/11/25 07:53:12;;;;;;;1.70;0.30;;;;;;;1.25;100.00;99855.91;5053386;28;20843;-70
2023/11/25 07:55:39;;;;;;;1.80;0.47;;;;;;;1.25;100.00;99855.09;5053565;28;20934;-69
2023/11/25 07:58:06;;;;;;;1.70;0.30;;;;;;;1.33;100.00;99856.47;5053614;28;20458;-69
2023/11/25 08:00:33;;;;;;;1.80;0.40;;;;;;;1.34;100.00;99848.22;5053110;28;20946;-69
2023/11/25 08:02:59;;;;;;;1.70;0.30;;;;;;;1.37;100.00;99847.69;5053223;28;20529;-69
2023/11/25 08:05:26;;;;;;;1.70;0.30;;;;;;;1.39;100.00;99856.25;5053553;28;20466;-70
2023/11/25 08:07:56;;;;;;;1.70;0.30;;;;;;;1.39;100.00;99855.44;5053437;28;20458;-70
2023/11/25 08:10:31;;;;;;;1.80;0.40;;;;;;;1.42;100.00;99854.94;5053496;28;20463;-69
2023/11/25 08:12:57;;;;;;;1.80;0.40;;;;;;;1.40;100.00;99852.50;5053793;28;20519;-69
2023/11/25 08:15:24;;;;;;;1.70;0.33;;;;;;;1.45;100.00;99857.88;5053861;28;20454;-69
2023/11/25 08:17:51;;;;;;;1.70;0.40;;;;;;;1.56;100.00;99852.63;5054817;28;20441;-69
2023/11/25 08:20:17;;;;;;;1.70;0.30;;;;;;;1.63;100.00;99851.28;5057655;28;20438;-69
2023/11/25 08:22:44;;;;;;;1.73;0.40;;;;;;;1.71;100.00;99848.13;5057430;28;20521;-69
2023/11/25 08:25:12;;;;;;;1.70;0.40;;;;;;;1.82;100.00;99858.88;5057332;28;20478;-69
2023/11/25 08:27:39;;;;;;;1.77;0.40;;;;;;;1.92;100.00;99857.03;5057489;28;20544;-69
2023/11/25 08:30:08;;;;;;;1.80;0.50;;;;;;;1.99;100.00;99854.09;5057094;28;20438;-69
2023/11/25 08:32:34;;;;;;;1.70;0.30;;;;;;;2.08;100.00;99855.22;5057634;28;20560;-68
2023/11/25 08:35:01;;;;;;;1.70;0.30;;;;;;;2.15;100.00;99847.75;5056918;28;20462;-68
2023/11/25 08:37:28;;;;;;;1.80;0.47;;;;;;;2.17;100.00;99845.63;5057374;28;20495;-66
2023/11/25 08:39:55;;;;;;;4.00;0.90;;;;;;;2.26;100.00;99843.25;5057370;28;20481;-70
2023/11/25 08:42:24;;;;;;;1.70;0.30;;;;;;;2.32;100.00;99844.06;5057154;28;20462;-69
2023/11/25 08:44:51;;;;;;;3.20;0.73;;;;;;;2.34;100.00;99844.56;5056414;28;20462;-70
2023/11/25 08:47:19;;;;;;;1.80;0.40;;;;;;;2.42;100.00;99846.72;5056826;28;20875;-69
2023/11/25 08:49:46;;;;;;;2.30;0.67;;;;;;;2.46;100.00;99855.84;5056886;28;20430;-69
2023/11/25 08:52:13;;;;;;;1.73;0.40;;;;;;;2.49;100.00;99856.09;5056230;28;20838;-68
2023/11/25 08:54:40;;;;;;;1.77;0.40;;;;;;;2.51;100.00;99850.47;5056315;28;20464;-68
2023/11/25 08:57:08;;;;;;;2.20;0.50;;;;;;;2.58;100.00;99860.94;5056397;28;20540;-69
2023/11/25 08:59:37;;;;;;;2.17;1.13;;;;;;;2.64;100.00;99860.66;5056598;28;20842;-69
2023/11/25 09:02:04;;;;;;;1.80;0.60;;;;;;;2.65;100.00;99866.81;5056516;28;20524;-69
2023/11/25 09:04:35;;;;;;;1.73;0.30;;;;;;;2.72;100.00;99872.69;5056071;28;20466;-69
2023/11/25 09:07:02;;;;;;;1.70;0.30;;;;;;;2.76;100.00;99869.22;5056534;28;20445;-69
2023/11/25 09:09:29;;;;;;;2.63;0.67;;;;;;;2.75;100.00;99862.28;5056070;28;20450;-69
2023/11/25 09:11:56;;;;;;;1.70;0.30;;;;;;;2.78;100.00;99860.94;5056352;28;20525;-69
2023/11/25 09:14:23;;;;;;;1.80;0.40;;;;;;;2.78;100.00;99867.06;5056298;28;20497;-69
2023/11/25 09:16:51;;;;;;;1.90;0.53;;;;;;;2.81;100.00;99864.94;5056813;28;20497;-69
2023/11/25 09:19:18;;;;;;;1.77;0.37;;;;;;;2.85;100.00;99858.81;5056278;28;20529;-70
2023/11/25 09:21:44;;;;;;;1.70;0.40;;;;;;;2.93;100.00;99858.28;5056199;28;20438;-70
2023/11/25 09:24:11;;;;;;;1.70;0.30;;;;;;;2.98;100.00;99862.81;5056040;28;20899;-70
2023/11/25 09:26:38;;;;;;;3.07;0.77;;;;;;;3.08;100.00;99857.44;5056105;28;20438;-70
2023/11/25 09:29:06;;;;;;;1.77;0.33;;;;;;;3.12;100.00;99852.38;5055479;28;20521;-71
2023/11/25 09:31:32;;;;;;;1.97;0.47;;;;;;;3.15;100.00;99854.50;5056114;28;20454;-70
2023/11/25 09:34:02;;;;;;;2.00;0.60;;;;;;;3.12;100.00;99853.16;5056304;28;20581;-70
2023/11/25 09:36:29;;;;;;;1.73;0.40;;;;;;;3.17;100.00;99855.81;5056033;28;20430;-69
2023/11/25 09:38:56;;;;;;;1.70;0.30;;;;;;;3.12;100.00;99852.38;5055941;28;20437;-70
2023/11/25 09:41:23;;;;;;;2.43;1.03;;;;;;;3.06;100.00;99851.56;5055781;28;20442;-71
2023/11/25 09:43:51;;;;;;;7.70;0.87;;;;;;;3.07;100.00;99837.13;5055355;28;20566;-70
2023/11/25 09:46:18;;;;;;;1.70;0.30;;;;;;;3.10;100.00;99838.44;5055425;28;20470;-73
2023/11/25 09:48:45;;;;;;;1.70;0.30;;;;;;;3.13;100.00;99836.03;5055760;28;20533;-71
2023/11/25 09:51:16;;;;;;;1.90;0.60;;;;;;;3.10;100.00;99836.59;5055642;28;20918;-70
2023/11/25 09:53:44;;;;;;;2.00;0.70;;;;;;;3.19;100.00;99826.94;5055456;28;20643;-71
2023/11/25 09:56:13;;;;;;;1.70;0.30;;;;;;;3.19;100.00;99818.91;5055616;28;20442;-71
2023/11/25 09:58:40;;;;;;;1.90;0.50;;;;;;;3.22;100.00;99823.69;5055463;28;20804;-71
2023/11/25 10:01:12;;;;;;;1.80;0.50;;;;;;;3.23;100.00;99827.19;5055783;28;20508;-71
2023/11/25 10:03:42;;;;;;;2.00;0.50;;;;;;;3.25;100.00;99825.84;5055393;28;20462;-71
2023/11/25 10:06:09;;;;;;;1.80;0.50;;;;;;;3.26;100.00;99816.75;5055524;28;20430;-71
2023/11/25 10:08:37;;;;;;;2.30;1.23;;;;;;;3.26;100.00;99813.25;5055041;28;20958;-71
2023/11/25 10:11:05;;;;;;;1.90;0.50;;;;;;;3.24;100.00;99812.75;5055330;28;20525;-71
2023/11/25 10:13:36;;;;;;;2.20;0.63;;;;;;;3.14;100.00;99820.78;5055360;28;20490;-71
2023/11/25 10:16:03;;;;;;;1.80;0.40;;;;;;;3.19;100.00;99816.25;5055036;28;20468;-71
2023/11/25 10:18:30;;;;;;;1.80;0.50;;;;;;;3.23;100.00;99814.63;5055288;28;20876;-71
2023/11/25 10:20:58;;;;;;;1.80;0.40;;;;;;;3.28;100.00;99814.63;5055207;28;20481;-71
2023/11/25 10:23:25;;;;;;;1.90;0.50;;;;;;;3.29;100.00;99810.84;5055089;28;20561;-72
2023/11/25 10:25:54;;;;;;;1.70;0.30;;;;;;;3.34;100.00;99809.25;5055555;28;20934;-71
2023/11/25 10:28:21;;;;;;;1.80;0.40;;;;;;;3.45;100.00;99802.75;5054989;28;20447;-71
2023/11/25 10:30:55;;;;;;;3.20;0.93;;;;;;;3.54;100.00;99803.81;5054676;28;20449;-71
2023/11/25 10:33:22;;;;;;;2.20;1.03;;;;;;;3.63;100.00;99801.34;5055103;28;20482;-71
2023/11/25 10:35:49;;;;;;;1.83;0.47;;;;;;;3.73;100.00;99791.41;5055494;28;20529;-71
2023/11/25 10:38:17;;;;;;;1.80;0.50;;;;;;;3.75;100.00;99799.16;5054947;28;20473;-71
2023/11/25 10:40:43;;;;;;;1.80;0.50;;;;;;;3.78;100.00;99791.41;5054249;28;20452;-71
2023/11/25 10:43:11;;;;;;;1.80;0.40;;;;;;;3.72;100.00;99789.81;5054408;28;20504;-71
2023/11/25 10:45:39;;;;;;;2.20;0.70;;;;;;;3.74;100.00;99801.06;5054880;28;20525;-71
2023/11/25 10:48:08;;;;;;;1.80;0.40;;;;;;;3.75;100.00;99794.63;5054788;28;20426;-71
2023/11/25 10:50:37;;;;;;;1.80;0.57;;;;;;;3.69;100.00;99801.06;5054719;28;20427;-71
2023/11/25 10:53:05;;;;;;;8.13;1.23;;;;;;;3.63;100.00;99796.84;5055432;28;20529;-71
2023/11/25 10:55:32;;;;;;;1.80;0.50;;;;;;;3.70;100.00;99800.00;5054543;28;20470;-71
2023/11/25 10:58:00;;;;;;;1.80;0.37;;;;;;;3.69;100.00;99805.63;5054906;28;20442;-72
2023/11/25 11:00:30;;;;;;;2.00;0.50;;;;;;;3.70;100.00;99805.34;5054776;28;20473;-71
2023/11/25 11:02:59;;;;;;;1.97;0.70;;;;;;;3.65;100.00;99797.34;5054414;28;20525;-73
2023/11/25 11:05:33;;;;;;;1.90;0.50;;;;;;;3.64;100.00;99803.78;5054200;28;20466;-72
2023/11/25 11:08:04;;;;;;;1.77;0.43;;;;;;;3.66;100.00;99795.47;5054345;28;20493;-72
2023/11/25 11:10:38;;;;;;;2.07;0.70;;;;;;;3.65;100.00;99800.03;5054164;28;20824;-72
2023/11/25 11:13:08;;;;;;;2.20;1.00;;;;;;;3.65;100.00;99800.03;5053959;28;20466;-72
2023/11/25 11:15:39;;;;;;;6.30;1.73;;;;;;;3.65;100.00;99800.03;5053853;28;20427;-72
2023/11/25 11:18:16;;;;;;;2.53;0.93;;;;;;;3.58;100.00;99799.50;5054590;28;20501;-72
2023/11/25 11:20:48;;;;;;;1.70;0.40;;;;;;;3.58;100.00;99798.72;5054318;28;20484;-70
2023/11/25 11:23:16;;;;;;;1.90;0.63;;;;;;;3.44;100.00;99793.13;5053820;28;20794;-72
2023/11/25 11:25:50;;;;;;;2.73;0.70;;;;;;;3.38;100.00;99791.56;5053575;28;21009;-71
2023/11/25 11:28:23;;;;;;;3.10;1.17;;;;;;;3.42;100.00;99798.78;5053866;28;20468;-71
2023/11/25 11:31:19;;;;;;;2.00;0.60;;;;;;;3.38;100.00;99799.59;5054048;28;20430;-70
2023/11/25 11:33:47;;;;;;;1.70;0.40;;;;;;;3.25;100.00;99798.28;5040964;28;20521;-70
2023/11/25 11:36:20;;;;;;;1.97;0.50;;;;;;;3.23;100.00;99798.56;5053889;28;20448;-71